Aviatik   Themenpakete

TAF Schweiz  Beispiel


VQLA21 LSSW 121859
MeteoSchweiz / MeteoSuisse / MeteoSvizzera / MeteoSwiss
TAF LSZHZURICH 121725Z 1218/1324 26007KT 9999 FEW050 TX27/1315Z TN14/1305Z BECMG 1218/1220 VRB03KT CAVOK PROB40 TEMPO 1302/1306 3000 MIFG BECMG 1308/1311 26008KT 9999 FEW050 TEMPO 1314/1324 BKN080 PROB30 TEMPO 1318/1324 -RA=
TAF LSGGGENEVA 121725Z 1218/1324 VRB02KT 9999 FEW060 TX28/1314Z TN15/1305Z BECMG 1218/1220 CAVOK BECMG 1308/1311 05007KT 9999 FEW040 BECMG 1318/1320 VRB02KT CAVOK=
TAF LFSBBASLE-MULHOUSE 121700Z 1218/1318 25006KT CAVOK BECMG 1300/1302 7000 NSC PROB30 TEMPO 1302/1305 4000 MIFG BECMG 1306/1309 27010KT 9999 FEW035 TEMPO 1315/1318 29015KT FEW053 FEW055CB=
TAF LSGSSION 121425Z 1215/1224 25012KT 9999 FEW070 BECMG 1220/1223 VRB04KT CAVOK=
TAF LSZALUGANO 121425Z 1215/1224 19005KT 9999 FEW050=
TAF LSZBBERN BELP 121425Z 1215/1224 VRB03KT 9999 FEW045=
TAF LSZGGRENCHEN 121425Z 1215/1224 VRB03KT 9999 SCT060=
TAF LSZLLOCARNO 121125Z 1212/1318 27005KT 9999 SCT050 PROB30 TEMPO 1315/1318 4000 TSRA SCT020 BKN030CB=
TAF LSZRST GALLEN ALTENRHEIN 121425Z 1215/1224 VRB03KT 9999 FEW045=
TAF LSGCLES EPLATURES 121425Z 1215/1224 03005KT 9999 SCT030 PROB30 1215/1218 BKN030 BECMG 1218/1222 CAVOK=
TAF LSZCBUOCHS 121425Z 1215/1224 VRB03KT 9999 SCT050=
TAF LSZSSAMEDAN 121425Z 1215/1224 33007KT 9999 SCT070 BECMG 1217/1219 VRB04KT=
TAF LSMAALPNACH 121125Z 1212/1318 05005KT 9999 SCT070 BECMG 1218/1220 VRB03KT PROB30 TEMPO 1303/1306 4000 MIFG=
TAF LSMDDUBENDORF 121125Z 1212/1318 VRB03KT 9999 FEW040 PROB30 TEMPO 1302/1306 4000 MIFG=
TAF LSMEEMMEN AB 121125Z 1212/1318 VRB03KT 9999 SCT040 PROB30 1303/1306 4000 MIFG=
TAF LSMMMEIRINGEN 121125Z 1212/1318 26005KT 9999 FEW060 TEMPO 1218/1306 06005KT=
TAF LSMPPAYERNE 121125Z 1212/1318 05005KT 9999 FEW050=





top